Time;durP1;ratioP1;P1;durP2;ratioP2;P2;SDS_P1;SDS_P2;PMS_P1;PMS_P2;Temp;Humidity;BMP_temperature;BMP_pressure;BME280_temperature;BME280_humidity;BME280_pressure;Samples;Min_cycle;Max_cycle;Signal;HPM_P1;HPM_P2
2023/12/24 00:00:37;;;;;;;13.73;4.72;;;;;;;9.23;100.00;100717.91;4897343;29;20028;-72
2023/12/24 00:03:03;;;;;;;13.80;4.40;;;;;;;9.24;100.00;100727.69;4890312;29;20105;-73
2023/12/24 00:05:28;;;;;;;15.50;4.57;;;;;;;9.23;100.00;100732.16;4904183;29;20060;-72
2023/12/24 00:07:54;;;;;;;15.18;4.35;;;;;;;9.24;100.00;100712.44;4906249;29;20032;-72
2023/12/24 00:10:19;;;;;;;11.32;3.78;;;;;;;9.24;100.00;100717.81;4886549;29;20028;-72
2023/12/24 00:12:44;;;;;;;13.18;3.80;;;;;;;9.23;100.00;100715.22;4901045;29;20036;-72
2023/12/24 00:15:10;;;;;;;20.65;5.22;;;;;;;9.24;100.00;100727.69;4904629;29;20311;-72
2023/12/24 00:17:35;;;;;;;18.88;4.70;;;;;;;9.25;100.00;100742.78;4903111;29;20486;-72
2023/12/24 00:20:01;;;;;;;15.10;4.82;;;;;;;9.25;100.00;100732.06;4876799;29;20021;-72
2023/12/24 00:22:28;;;;;;;13.48;4.50;;;;;;;9.27;100.00;100743.56;4896956;29;20416;-73
2023/12/24 00:24:53;;;;;;;13.63;4.22;;;;;;;9.28;100.00;100737.22;4897643;29;20064;-73
2023/12/24 00:27:18;;;;;;;15.68;4.50;;;;;;;9.29;100.00;100738.09;4881335;29;20060;-73
2023/12/24 00:29:44;;;;;;;10.88;4.55;;;;;;;9.30;100.00;100740.66;4894529;29;20036;-71
2023/12/24 00:32:09;;;;;;;14.27;4.47;;;;;;;9.31;100.00;100715.53;4882975;29;20334;-72
2023/12/24 00:34:34;;;;;;;14.00;4.68;;;;;;;9.31;100.00;100718.22;4876824;29;20045;-73
2023/12/24 00:37:00;;;;;;;15.23;4.38;;;;;;;9.32;100.00;100711.06;4892149;29;20043;-72
2023/12/24 00:39:25;;;;;;;11.80;3.75;;;;;;;9.32;100.00;100709.22;4896321;29;20180;-73
2023/12/24 00:41:50;;;;;;;14.00;4.28;;;;;;;9.31;100.00;100680.66;4893333;29;20109;-72
2023/12/24 00:44:15;;;;;;;13.05;3.50;;;;;;;9.33;100.00;100677.91;4902566;29;20043;-72
2023/12/24 00:46:41;;;;;;;9.65;3.53;;;;;;;9.31;100.00;100669.94;4901897;29;20028;-72
2023/12/24 00:49:06;;;;;;;11.63;3.72;;;;;;;9.30;100.00;100657.53;4878688;29;20036;-72
2023/12/24 00:51:31;;;;;;;14.55;3.55;;;;;;;9.27;100.00;100647.00;4896803;29;20460;-73
2023/12/24 00:53:56;;;;;;;12.60;3.72;;;;;;;9.26;100.00;100647.97;4904403;29;20495;-74
2023/12/24 00:56:22;;;;;;;13.07;3.45;;;;;;;9.24;100.00;100633.84;4885390;29;20285;-75
2023/12/24 00:58:47;;;;;;;12.48;4.03;;;;;;;9.22;100.00;100633.94;4898617;29;20064;-73
2023/12/24 01:01:12;;;;;;;9.27;3.38;;;;;;;9.21;100.00;100621.50;4878975;29;20028;-75
2023/12/24 01:03:38;;;;;;;13.57;3.13;;;;;;;9.23;100.00;100606.13;4886309;29;20058;-75
2023/12/24 01:06:03;;;;;;;9.27;3.17;;;;;;;9.24;100.00;100596.28;4879571;29;20091;-75
2023/12/24 01:08:28;;;;;;;11.05;3.20;;;;;;;9.22;100.00;100574.94;4898082;29;20036;-75
2023/12/24 01:10:54;;;;;;;8.88;2.72;;;;;;;9.22;100.00;100572.25;4893365;29;20041;-74
2023/12/24 01:13:19;;;;;;;10.82;2.80;;;;;;;9.24;100.00;100574.84;4884435;29;20388;-76
2023/12/24 01:15:48;;;;;;;9.00;3.10;;;;;;;9.24;100.00;100582.88;4899526;29;20177;-75
2023/12/24 01:18:14;;;;;;;11.18;3.45;;;;;;;9.26;100.00;100579.09;4892510;29;20343;-74
2023/12/24 01:20:41;;;;;;;12.05;3.30;;;;;;;9.27;100.00;100571.94;4881550;29;20092;-75
2023/12/24 01:23:06;;;;;;;9.57;2.97;;;;;;;9.27;100.00;100572.78;4902126;29;20039;-75
2023/12/24 01:25:32;;;;;;;8.52;2.83;;;;;;;9.29;100.00;100563.78;4894164;29;20411;-74
2023/12/24 01:27:57;;;;;;;9.70;2.72;;;;;;;9.31;100.00;100567.19;4898004;29;20032;-75
2023/12/24 01:30:22;;;;;;;8.98;2.65;;;;;;;9.31;100.00;100570.72;4898425;29;20392;-74
2023/12/24 01:32:47;;;;;;;17.20;3.65;;;;;;;9.32;100.00;100579.63;4897111;29;20392;-74
2023/12/24 01:35:13;;;;;;;16.77;3.47;;;;;;;9.33;100.00;100576.84;4889166;29;20056;-75
2023/12/24 01:37:38;;;;;;;11.07;2.60;;;;;;;9.33;100.00;100574.16;4891249;29;20627;-74
2023/12/24 01:40:04;;;;;;;9.43;2.00;;;;;;;9.34;100.00;100589.28;4893266;29;20470;-74
2023/12/24 01:42:29;;;;;;;7.78;2.40;;;;;;;9.35;100.00;100585.63;4886073;29;20032;-75
2023/12/24 01:44:54;;;;;;;9.07;2.30;;;;;;;9.36;100.00;100594.53;4888463;29;20447;-75
2023/12/24 01:47:20;;;;;;;8.50;2.35;;;;;;;9.37;100.00;100593.56;4896430;29;20088;-74
2023/12/24 01:49:48;;;;;;;7.75;2.53;;;;;;;9.37;100.00;100591.75;4883645;29;20498;-75
2023/12/24 01:52:13;;;;;;;15.93;3.20;;;;;;;9.38;100.00;100595.28;4891405;29;20333;-75
2023/12/24 01:54:38;;;;;;;13.48;2.90;;;;;;;9.38;100.00;100593.44;4879668;29;20481;-75
2023/12/24 01:57:04;;;;;;;13.07;2.50;;;;;;;9.38;100.00;100595.28;4893053;29;20568;-75
2023/12/24 01:59:30;;;;;;;7.65;2.45;;;;;;;9.37;100.00;100596.22;4879364;29;20092;-75
2023/12/24 02:01:56;;;;;;;11.63;3.08;;;;;;;9.37;100.00;100591.75;4882543;29;20027;-74
2023/12/24 02:04:22;;;;;;;10.55;2.60;;;;;;;9.37;100.00;100589.06;4880269;29;20037;-75
2023/12/24 02:06:49;;;;;;;10.20;3.20;;;;;;;9.37;100.00;100586.38;4872371;29;20032;-75
2023/12/24 02:09:15;;;;;;;8.77;2.65;;;;;;;9.36;100.00;100584.66;4892318;29;20028;-74
2023/12/24 02:11:40;;;;;;;11.02;2.60;;;;;;;9.36;100.00;100587.34;4901485;29;20104;-74
2023/12/24 02:14:05;;;;;;;9.95;2.55;;;;;;;9.33;100.00;100582.19;4880300;29;20323;-75
2023/12/24 02:16:36;;;;;;;14.68;3.58;;;;;;;9.32;100.00;100577.81;4894724;29;20458;-74
2023/12/24 02:19:03;;;;;;;11.55;3.30;;;;;;;9.31;100.00;100589.47;4895523;29;20025;-75
2023/12/24 02:21:28;;;;;;;9.07;2.92;;;;;;;9.29;100.00;100575.34;4886679;29;20024;-74
2023/12/24 02:23:53;;;;;;;11.70;2.97;;;;;;;9.28;100.00;100570.94;4883196;29;20146;-75
2023/12/24 02:26:31;;;;;;;13.35;3.40;;;;;;;9.27;100.00;100567.41;4895978;29;20032;-75
2023/12/24 02:29:06;;;;;;;10.45;3.03;;;;;;;9.25;100.00;100565.78;4904297;29;20166;-74
2023/12/24 02:31:37;;;;;;;12.38;2.88;;;;;;;9.23;100.00;100567.75;4883341;29;20400;-74
2023/12/24 02:34:04;;;;;;;7.25;2.35;;;;;;;9.23;100.00;100563.22;4879237;29;20171;-72
2023/12/24 02:36:31;;;;;;;12.45;3.17;;;;;;;9.20;100.00;100554.56;4878108;29;20028;-72
2023/12/24 02:38:57;;;;;;;9.60;3.20;;;;;;;9.18;100.00;100545.75;4897857;29;20068;-72
2023/12/24 02:41:22;;;;;;;10.45;3.03;;;;;;;9.16;100.00;100536.97;4880427;29;20039;-72
2023/12/24 02:43:47;;;;;;;10.95;3.17;;;;;;;9.14;100.00;100538.94;4880593;29;20350;-71
2023/12/24 02:46:13;;;;;;;10.20;3.22;;;;;;;9.11;100.00;100534.63;4881902;29;20076;-72
2023/12/24 02:48:38;;;;;;;10.27;3.33;;;;;;;9.09;100.00;100534.75;4901893;29;20045;-72
2023/12/24 02:51:04;;;;;;;12.63;3.40;;;;;;;9.08;100.00;100525.00;4891604;29;20035;-72
2023/12/24 02:53:29;;;;;;;14.65;3.88;;;;;;;9.07;100.00;100522.41;4882602;29;20032;-72
2023/12/24 02:55:54;;;;;;;12.65;3.60;;;;;;;9.06;100.00;100518.00;4880492;29;20063;-74
2023/12/24 02:58:19;;;;;;;11.30;3.15;;;;;;;9.04;100.00;100504.72;4900842;29;20085;-72
2023/12/24 03:00:45;;;;;;;13.38;3.10;;;;;;;9.03;100.00;100516.41;4874018;29;20032;-71
2023/12/24 03:03:10;;;;;;;13.55;3.17;;;;;;;9.04;100.00;100512.75;4877581;29;20047;-72
2023/12/24 03:05:35;;;;;;;10.07;3.10;;;;;;;9.02;100.00;100514.72;4883669;29;20037;-71
2023/12/24 03:08:01;;;;;;;10.25;3.42;;;;;;;9.03;100.00;100520.91;4881451;29;20056;-72
2023/12/24 03:10:26;;;;;;;12.70;3.65;;;;;;;9.02;100.00;100516.50;4884394;29;20056;-71
2023/12/24 03:12:52;;;;;;;10.98;2.97;;;;;;;9.00;100.00;100503.22;4898162;29;20057;-72
2023/12/24 03:15:17;;;;;;;17.13;3.45;;;;;;;9.01;100.00;100509.47;4880532;29;20032;-72
2023/12/24 03:17:43;;;;;;;13.32;3.13;;;;;;;9.00;100.00;100503.22;4884145;29;20469;-71
2023/12/24 03:20:09;;;;;;;12.55;2.65;;;;;;;9.00;100.00;100499.69;4880230;29;20047;-71
2023/12/24 03:22:34;;;;;;;7.18;2.60;;;;;;;8.99;100.00;100490.81;4884471;29;20033;-72
2023/12/24 03:25:00;;;;;;;7.05;2.00;;;;;;;8.98;100.00;100483.72;4898480;29;20184;-71
2023/12/24 03:27:25;;;;;;;6.40;2.17;;;;;;;8.99;100.00;100480.09;4883994;29;20035;-71
2023/12/24 03:29:50;;;;;;;9.27;2.25;;;;;;;8.98;100.00;100470.31;4898476;29;20032;-72
2023/12/24 03:32:16;;;;;;;8.52;2.17;;;;;;;8.99;100.00;100473.84;4884606;29;20383;-71
2023/12/24 03:34:41;;;;;;;10.43;2.30;;;;;;;8.99;100.00;100472.06;4899379;29;20045;-72
2023/12/24 03:37:07;;;;;;;3.58;1.73;;;;;;;8.99;100.00;100466.69;4896529;29;20445;-71
2023/12/24 03:39:32;;;;;;;6.22;1.80;;;;;;;8.99;100.00;100450.59;4903016;29;20115;-71
2023/12/24 03:41:57;;;;;;;4.88;1.60;;;;;;;9.00;100.00;100462.19;4899065;29;20044;-72
2023/12/24 03:44:22;;;;;;;4.20;1.45;;;;;;;9.01;100.00;100454.03;4905169;29;20088;-72
2023/12/24 03:46:48;;;;;;;2.38;0.80;;;;;;;9.00;100.00;100463.03;4900142;29;20076;-71
2023/12/24 03:49:13;;;;;;;5.38;1.20;;;;;;;9.01;100.00;100455.84;4900751;29;20400;-73
2023/12/24 03:51:38;;;;;;;3.35;1.25;;;;;;;9.00;100.00;100446.94;4880771;29;20091;-71
2023/12/24 03:54:04;;;;;;;5.00;1.40;;;;;;;9.00;100.00;100449.63;4894246;29;20042;-74
2023/12/24 03:56:29;;;;;;;1.50;0.70;;;;;;;9.01;100.00;100429.06;4900147;29;20596;-75
2023/12/24 03:58:54;;;;;;;1.85;1.15;;;;;;;9.00;100.00;100436.22;4901392;29;20055;-74
2023/12/24 04:01:26;;;;;;;1.55;0.98;;;;;;;9.01;100.00;100445.13;4898977;29;20517;-74
2023/12/24 04:03:52;;;;;;;1.50;0.70;;;;;;;9.02;100.00;100444.16;4900112;29;20095;-74
2023/12/24 04:06:17;;;;;;;0.60;0.60;;;;;;;9.04;100.00;100447.59;4897932;29;20481;-74
2023/12/24 04:08:43;;;;;;;0.55;0.55;;;;;;;9.04;100.00;100461.84;4901646;29;20024;-74
2023/12/24 04:11:13;;;;;;;0.82;0.70;;;;;;;9.03;100.00;100454.75;4902350;29;20060;-74
2023/12/24 04:13:38;;;;;;;;;;;;;;;9.05;100.00;100447.47;4880133;29;20034;-74
2023/12/24 04:16:03;;;;;;;1.48;0.88;;;;;;;9.05;100.00;100438.59;4887246;29;19919;-75
2023/12/24 04:18:28;;;;;;;4.15;1.02;;;;;;;9.04;100.00;100437.72;4898451;29;20472;-74
2023/12/24 04:20:54;;;;;;;2.90;1.10;;;;;;;9.05;100.00;100438.59;4894649;29;20120;-74
2023/12/24 04:23:19;;;;;;;3.83;0.98;;;;;;;9.05;100.00;100428.72;4879683;29;20718;-74
2023/12/24 04:25:44;;;;;;;1.52;0.88;;;;;;;9.05;100.00;100427.88;4894814;29;20035;-75
2023/12/24 04:28:10;;;;;;;1.58;1.13;;;;;;;9.05;100.00;100426.03;4905582;29;20032;-75
2023/12/24 04:30:35;;;;;;;2.10;1.10;;;;;;;9.03;100.00;100427.94;4895957;29;20031;-74
2023/12/24 04:33:00;;;;;;;3.33;0.95;;;;;;;9.05;100.00;100427.88;4879578;29;20430;-74
2023/12/24 04:35:25;;;;;;;1.38;0.90;;;;;;;9.04;100.00;100424.31;4900642;29;20032;-74
2023/12/24 04:37:51;;;;;;;2.75;0.88;;;;;;;9.05;100.00;100420.66;4881776;29;20112;-75
2023/12/24 04:40:16;;;;;;;5.78;0.88;;;;;;;9.04;100.00;100426.13;4900442;29;20051;-75
2023/12/24 04:42:41;;;;;;;1.95;0.98;;;;;;;9.05;100.00;100423.34;4883646;29;20070;-74
2023/12/24 04:45:07;;;;;;;1.90;0.75;;;;;;;9.04;100.00;100429.66;4889917;29;20048;-74
2023/12/24 04:47:32;;;;;;;2.15;0.98;;;;;;;9.04;100.00;100432.34;4904166;29;20103;-74
2023/12/24 04:49:57;;;;;;;1.17;1.00;;;;;;;9.05;100.00;100420.66;4884315;29;20135;-75
2023/12/24 04:52:22;;;;;;;2.70;1.10;;;;;;;9.05;100.00;100417.13;4882817;29;20429;-75
2023/12/24 04:54:48;;;;;;;1.50;0.73;;;;;;;9.05;100.00;100423.34;4900979;29;20115;-74
2023/12/24 04:57:13;;;;;;;2.60;0.90;;;;;;;9.07;100.00;100421.41;4902477;29;20039;-75
2023/12/24 04:59:38;;;;;;;5.30;1.00;;;;;;;9.08;100.00;100420.44;4887011;29;20520;-74
2023/12/24 05:02:04;;;;;;;1.88;0.95;;;;;;;9.08;100.00;100412.38;4876923;29;20028;-75
2023/12/24 05:04:32;;;;;;;1.63;1.13;;;;;;;9.08;100.00;100412.38;4893494;29;20642;-72
2023/12/24 05:06:58;;;;;;;0.98;0.90;;;;;;;9.09;100.00;100416.78;4880403;29;20528;-71
2023/12/24 05:09:23;;;;;;;1.52;1.20;;;;;;;9.09;100.00;100424.84;4895404;29;20036;-72
2023/12/24 05:11:48;;;;;;;3.92;0.90;;;;;;;9.09;100.00;100408.75;4883523;29;20032;-72
2023/12/24 05:14:13;;;;;;;3.42;0.80;;;;;;;9.09;100.00;100411.44;4900429;29;20076;-71
2023/12/24 05:16:39;;;;;;;1.42;0.73;;;;;;;9.10;100.00;100418.47;4880408;29;20384;-72
2023/12/24 05:19:04;;;;;;;1.00;0.75;;;;;;;9.10;100.00;100431.88;4900597;29;20035;-71
2023/12/24 05:21:29;;;;;;;4.35;1.40;;;;;;;9.12;100.00;100417.53;4882328;29;20029;-71
2023/12/24 05:23:56;;;;;;;1.00;0.73;;;;;;;9.13;100.00;100413.88;4883374;29;20392;-73
2023/12/24 05:26:21;;;;;;;1.23;0.82;;;;;;;9.14;100.00;100420.97;4895670;29;20488;-72
2023/12/24 05:28:47;;;;;;;1.40;0.75;;;;;;;9.14;100.00;100410.25;4884960;29;20029;-72
2023/12/24 05:31:12;;;;;;;1.27;1.00;;;;;;;9.15;100.00;100409.25;4883313;29;20036;-71
2023/12/24 05:33:37;;;;;;;1.80;0.98;;;;;;;9.15;100.00;100414.63;4899004;29;20052;-73
2023/12/24 05:36:03;;;;;;;0.85;0.65;;;;;;;9.16;100.00;100413.66;4892354;29;20100;-72
2023/12/24 05:38:29;;;;;;;3.78;1.17;;;;;;;9.16;100.00;100413.66;4894131;29;20031;-71
2023/12/24 05:40:54;;;;;;;2.50;1.02;;;;;;;9.16;100.00;100403.78;4886362;29;20485;-72
2023/12/24 05:43:19;;;;;;;2.20;1.10;;;;;;;9.17;100.00;100401.97;4882767;29;20039;-72
2023/12/24 05:45:45;;;;;;;2.08;1.15;;;;;;;9.17;100.00;100400.13;4882723;29;20460;-72
2023/12/24 05:48:10;;;;;;;1.30;0.77;;;;;;;9.18;100.00;100396.47;4900440;29;20040;-72
2023/12/24 05:50:35;;;;;;;1.70;0.95;;;;;;;9.18;100.00;100407.22;4898149;29;20032;-72
2023/12/24 05:53:00;;;;;;;2.33;1.30;;;;;;;9.18;100.00;100407.22;4892629;29;20529;-72
2023/12/24 05:55:27;;;;;;;2.25;1.15;;;;;;;9.18;100.00;100401.84;4894991;29;20032;-72
2023/12/24 05:57:52;;;;;;;5.22;1.40;;;;;;;9.18;100.00;100401.84;4879395;29;20093;-72
2023/12/24 06:00:17;;;;;;;1.45;0.80;;;;;;;9.19;100.00;100394.66;4882525;29;20456;-71
2023/12/24 06:02:44;;;;;;;2.40;0.95;;;;;;;9.20;100.00;100388.31;4877092;29;20035;-72
2023/12/24 06:05:09;;;;;;;2.97;1.17;;;;;;;9.21;100.00;100384.66;4894493;29;20020;-72
2023/12/24 06:07:35;;;;;;;2.67;1.13;;;;;;;9.20;100.00;100394.53;4898438;29;20046;-72
2023/12/24 06:10:00;;;;;;;1.83;1.10;;;;;;;9.22;100.00;100402.47;4896289;29;20024;-72
2023/12/24 06:12:25;;;;;;;3.03;1.38;;;;;;;9.23;100.00;100404.19;4883890;29;20056;-74
2023/12/24 06:14:51;;;;;;;1.70;1.25;;;;;;;9.24;100.00;100408.59;4900602;29;20048;-72
2023/12/24 06:17:16;;;;;;;2.53;1.15;;;;;;;9.24;100.00;100401.38;4878612;29;20024;-72
2023/12/24 06:19:41;;;;;;;2.00;0.98;;;;;;;9.24;100.00;100398.69;4883875;29;20056;-71
2023/12/24 06:22:07;;;;;;;3.03;1.50;;;;;;;9.24;100.00;100387.97;4901556;29;20396;-72
2023/12/24 06:24:32;;;;;;;2.72;1.13;;;;;;;9.25;100.00;100386.13;4895572;29;20039;-74
2023/12/24 06:26:58;;;;;;;3.13;1.40;;;;;;;9.26;100.00;100387.84;4894994;29;20036;-74
2023/12/24 06:29:23;;;;;;;1.27;0.80;;;;;;;9.27;100.00;100370.81;4892175;29;20032;-74
2023/12/24 06:31:48;;;;;;;1.95;1.08;;;;;;;9.27;100.00;100373.50;4876901;29;20420;-74
2023/12/24 06:34:14;;;;;;;3.63;1.30;;;;;;;9.29;100.00;100370.69;4898829;29;20048;-74
2023/12/24 06:36:39;;;;;;;2.60;1.30;;;;;;;9.29;100.00;100371.53;4899519;29;20080;-74
2023/12/24 06:39:05;;;;;;;3.22;1.20;;;;;;;9.30;100.00;100367.00;4896309;29;20396;-74
2023/12/24 06:41:30;;;;;;;1.10;0.95;;;;;;;9.30;100.00;100367.88;4877368;29;20678;-74
2023/12/24 06:43:56;;;;;;;2.50;1.40;;;;;;;9.31;100.00;100360.69;4877079;29;20043;-74
2023/12/24 06:46:21;;;;;;;4.57;1.08;;;;;;;9.31;100.00;100364.22;4877031;29;20364;-74
2023/12/24 06:48:46;;;;;;;1.25;0.82;;;;;;;9.33;100.00;100366.81;4894825;29;20058;-74
2023/12/24 06:51:11;;;;;;;2.88;1.20;;;;;;;9.33;100.00;100364.97;4875941;29;20072;-74
2023/12/24 06:53:37;;;;;;;2.45;0.93;;;;;;;9.34;100.00;100363.13;4898149;29;20037;-75
2023/12/24 06:56:02;;;;;;;1.45;1.15;;;;;;;9.35;100.00;100367.53;4883876;29;20135;-74
2023/12/24 06:58:28;;;;;;;3.33;1.00;;;;;;;9.34;100.00;100358.66;4899312;29;20047;-74
2023/12/24 07:00:53;;;;;;;3.20;1.17;;;;;;;9.34;100.00;100364.00;4894861;29;20044;-74
2023/12/24 07:03:18;;;;;;;2.60;1.30;;;;;;;9.35;100.00;100354.13;4896527;29;20396;-74
2023/12/24 07:05:44;;;;;;;3.67;1.42;;;;;;;9.36;100.00;100345.97;4897055;29;20047;-74
2023/12/24 07:08:09;;;;;;;2.70;1.35;;;;;;;9.37;100.00;100358.41;4897887;29;20024;-74
2023/12/24 07:10:36;;;;;;;4.95;1.98;;;;;;;9.36;100.00;100351.31;4897145;29;20024;-74
2023/12/24 07:13:01;;;;;;;4.85;1.58;;;;;;;9.39;100.00;100350.25;4890694;29;20040;-74
2023/12/24 07:15:26;;;;;;;3.60;1.65;;;;;;;9.38;100.00;100349.38;4900519;29;20033;-74
2023/12/24 07:17:52;;;;;;;3.78;1.52;;;;;;;9.39;100.00;100367.19;4892003;29;20028;-74
2023/12/24 07:20:17;;;;;;;3.92;1.45;;;;;;;9.40;100.00;100358.16;4876811;29;20032;-75
2023/12/24 07:22:43;;;;;;;4.38;1.67;;;;;;;9.40;100.00;100355.50;4889312;29;20378;-74
2023/12/24 07:25:10;;;;;;;2.53;1.48;;;;;;;9.41;100.00;100354.53;4900756;29;20087;-74
2023/12/24 07:27:35;;;;;;;6.90;1.80;;;;;;;9.42;100.00;100350.00;4881109;29;20138;-74
2023/12/24 07:30:00;;;;;;;4.93;1.80;;;;;;;9.42;100.00;100358.91;4899675;29;20020;-73
2023/12/24 07:32:25;;;;;;;4.28;1.90;;;;;;;9.42;100.00;100360.72;4882869;29;20098;-75
2023/12/24 07:34:51;;;;;;;5.63;1.88;;;;;;;9.43;100.00;100359.78;4886279;29;20111;-72
2023/12/24 07:37:16;;;;;;;3.45;1.65;;;;;;;9.43;100.00;100363.28;4903417;29;20060;-72
2023/12/24 07:39:42;;;;;;;9.52;2.20;;;;;;;9.45;100.00;100361.34;4902886;29;20031;-73
2023/12/24 07:42:07;;;;;;;4.45;1.67;;;;;;;9.45;100.00;100363.19;4888821;29;20067;-72
2023/12/24 07:44:33;;;;;;;6.60;1.90;;;;;;;9.47;100.00;100371.09;4880192;29;20119;-75
2023/12/24 07:46:58;;;;;;;3.63;1.77;;;;;;;9.45;100.00;100372.06;4903077;29;20396;-74
2023/12/24 07:49:26;;;;;;;4.35;1.70;;;;;;;9.45;100.00;100372.06;4882756;29;20024;-74
2023/12/24 07:51:51;;;;;;;5.97;2.15;;;;;;;9.45;100.00;100369.38;4885234;29;20036;-74
2023/12/24 07:54:16;;;;;;;4.13;1.77;;;;;;;9.46;100.00;100367.59;4876130;29;20099;-75
2023/12/24 07:56:42;;;;;;;6.50;1.88;;;;;;;9.47;100.00;100371.94;4882218;29;20399;-75
2023/12/24 07:59:07;;;;;;;5.68;1.50;;;;;;;9.46;100.00;100356.84;4884902;29;20061;-74
2023/12/24 08:01:32;;;;;;;1.83;1.20;;;;;;;9.49;100.00;100366.47;4901158;29;20059;-73
2023/12/24 08:03:57;;;;;;;3.03;1.40;;;;;;;9.49;100.00;100361.09;4880153;29;20032;-75
2023/12/24 08:06:23;;;;;;;3.22;1.30;;;;;;;9.48;100.00;100360.25;4886564;29;20057;-74
2023/12/24 08:08:48;;;;;;;2.03;1.10;;;;;;;9.49;100.00;100361.09;4883181;29;20062;-74
2023/12/24 08:11:13;;;;;;;2.10;0.73;;;;;;;9.50;100.00;100368.19;4894428;29;20031;-74
2023/12/24 08:13:39;;;;;;;2.58;1.23;;;;;;;9.49;100.00;100361.97;4893030;29;20028;-74
2023/12/24 08:16:04;;;;;;;2.10;1.08;;;;;;;9.50;100.00;100362.81;4901471;29;20145;-75
2023/12/24 08:18:29;;;;;;;1.65;1.08;;;;;;;9.51;100.00;100370.75;4893852;29;20513;-74
2023/12/24 08:20:55;;;;;;;3.10;1.35;;;;;;;9.51;100.00;100372.59;4897265;29;20107;-74
2023/12/24 08:23:20;;;;;;;2.85;1.25;;;;;;;9.52;100.00;100360.91;4884963;29;20028;-74
2023/12/24 08:25:46;;;;;;;4.50;1.60;;;;;;;9.53;100.00;100358.09;4881745;29;20035;-75
2023/12/24 08:28:12;;;;;;;6.53;1.55;;;;;;;9.54;100.00;100358.94;4895128;29;20036;-74
2023/12/24 08:30:38;;;;;;;3.65;1.80;;;;;;;9.55;100.00;100361.50;4876708;29;20527;-75
2023/12/24 08:33:03;;;;;;;2.38;1.30;;;;;;;9.57;100.00;100361.38;4897994;29;20501;-74
2023/12/24 08:35:29;;;;;;;3.80;1.63;;;;;;;9.57;100.00;100354.19;4882671;29;20028;-75
2023/12/24 08:37:54;;;;;;;2.65;1.73;;;;;;;9.58;100.00;100349.69;4899389;29;20117;-74
2023/12/24 08:40:19;;;;;;;2.60;1.15;;;;;;;9.60;100.00;100363.81;4882544;29;20028;-74
2023/12/24 08:42:45;;;;;;;2.35;1.25;;;;;;;9.61;100.00;100354.81;4882242;29;20056;-74
2023/12/24 08:45:10;;;;;;;3.13;1.40;;;;;;;9.61;100.00;100352.97;4898487;29;20111;-74
2023/12/24 08:47:35;;;;;;;3.85;1.55;;;;;;;9.61;100.00;100355.66;4895742;29;20032;-75
2023/12/24 08:50:00;;;;;;;1.48;1.20;;;;;;;9.64;100.00;100361.78;4879672;29;20088;-75
2023/12/24 08:52:26;;;;;;;2.05;1.60;;;;;;;9.65;100.00;100355.41;4898623;29;20020;-74
2023/12/24 08:54:51;;;;;;;3.63;1.80;;;;;;;9.65;100.00;100350.94;4897352;29;20032;-74
2023/12/24 08:57:16;;;;;;;2.13;1.38;;;;;;;9.67;100.00;100354.31;4877492;29;20067;-75
2023/12/24 08:59:42;;;;;;;3.28;1.65;;;;;;;9.68;100.00;100345.31;4895046;29;20052;-75
2023/12/24 09:02:07;;;;;;;4.88;1.60;;;;;;;9.68;100.00;100348.00;4878987;29;20037;-74
2023/12/24 09:04:32;;;;;;;7.85;2.00;;;;;;;9.70;100.00;100359.47;4872413;29;20176;-75
2023/12/24 09:06:58;;;;;;;4.45;1.58;;;;;;;9.71;100.00;100358.50;4901410;29;20120;-74
2023/12/24 09:09:23;;;;;;;3.30;1.80;;;;;;;9.72;100.00;100368.25;4897925;29;20102;-74
2023/12/24 09:11:49;;;;;;;3.92;1.85;;;;;;;9.72;100.00;100368.25;4902011;29;20025;-74
2023/12/24 09:14:14;;;;;;;5.22;2.17;;;;;;;9.75;100.00;100376.06;4903546;29;20031;-72
2023/12/24 09:16:39;;;;;;;4.85;2.10;;;;;;;9.75;100.00;100377.88;4878128;29;20043;-73
2023/12/24 09:19:05;;;;;;;3.60;1.75;;;;;;;9.77;100.00;100381.31;4896431;29;20025;-72
2023/12/24 09:21:30;;;;;;;5.03;2.17;;;;;;;9.78;100.00;100377.63;4897474;29;20038;-72
2023/12/24 09:23:58;;;;;;;3.33;1.73;;;;;;;9.79;100.00;100374.88;4904062;29;20450;-72
2023/12/24 09:26:23;;;;;;;3.00;1.35;;;;;;;9.80;100.00;100360.44;4898019;29;20032;-72
2023/12/24 09:28:48;;;;;;;6.05;1.83;;;;;;;9.82;100.00;100362.16;4895839;29;20485;-72
2023/12/24 09:31:14;;;;;;;3.70;1.70;;;;;;;9.84;100.00;100368.25;4879055;29;21570;-72
2023/12/24 09:33:39;;;;;;;3.17;1.60;;;;;;;9.84;100.00;100363.75;4899633;29;20476;-72
2023/12/24 09:36:07;;;;;;;4.55;1.67;;;;;;;9.86;100.00;100358.28;4893819;29;20044;-72
2023/12/24 09:38:33;;;;;;;4.45;1.75;;;;;;;9.86;100.00;100358.28;4891944;29;20029;-72
2023/12/24 09:40:58;;;;;;;4.88;1.98;;;;;;;9.87;100.00;100355.47;4893845;29;20504;-72
2023/12/24 09:43:25;;;;;;;2.47;1.60;;;;;;;9.88;100.00;100350.94;4901720;29;20032;-72
2023/12/24 09:45:50;;;;;;;3.25;1.42;;;;;;;9.89;100.00;100353.50;4881756;29;20032;-71
2023/12/24 09:48:15;;;;;;;5.82;2.00;;;;;;;9.90;100.00;100349.00;4886446;29;20537;-71
2023/12/24 09:50:41;;;;;;;13.38;3.35;;;;;;;9.91;100.00;100351.56;4900294;29;20434;-72
2023/12/24 09:53:06;;;;;;;6.15;2.17;;;;;;;9.92;100.00;100357.78;4899218;29;20047;-73
2023/12/24 09:55:31;;;;;;;11.50;2.67;;;;;;;9.93;100.00;100362.19;4879129;29;20906;-72
2023/12/24 09:57:56;;;;;;;6.70;2.85;;;;;;;9.94;100.00;100362.06;4897384;29;20055;-72
2023/12/24 10:00:22;;;;;;;14.82;4.28;;;;;;;9.95;100.00;100352.19;4895192;29;20035;-71
2023/12/24 10:02:47;;;;;;;15.20;4.70;;;;;;;9.95;100.00;100353.03;4881327;29;20064;-73
2023/12/24 10:05:14;;;;;;;17.15;5.68;;;;;;;9.96;100.00;100364.63;4897871;29;20507;-72
2023/12/24 10:07:40;;;;;;;16.60;5.35;;;;;;;9.98;100.00;100365.34;4896705;29;20051;-71
2023/12/24 10:10:08;;;;;;;20.02;6.65;;;;;;;10.00;100.00;100367.91;4901738;29;20056;-72
2023/12/24 10:12:34;;;;;;;20.55;7.70;;;;;;;10.02;100.00;100352.56;4888931;29;20100;-72
2023/12/24 10:15:00;;;;;;;20.90;7.82;;;;;;;10.03;100.00;100359.63;4892399;29;20144;-73
2023/12/24 10:17:33;;;;;;;19.85;7.45;;;;;;;10.04;100.00;100350.59;4886420;29;20495;-72
2023/12/24 10:20:00;;;;;;;22.17;8.30;;;;;;;10.07;100.00;100356.59;4879649;29;20168;-72
2023/12/24 10:22:26;;;;;;;22.27;8.95;;;;;;;10.08;100.00;100352.91;4894465;29;20039;-72
2023/12/24 10:25:05;;;;;;;22.42;9.00;;;;;;;10.09;100.00;100365.38;4877604;29;20415;-73
2023/12/24 10:27:31;;;;;;;23.50;9.38;;;;;;;10.11;100.00;100360.72;4901263;29;20107;-72
2023/12/24 10:30:13;;;;;;;21.70;9.70;;;;;;;10.12;100.00;100359.75;4895864;29;20088;-72
2023/12/24 10:32:40;;;;;;;23.48;8.85;;;;;;;10.14;100.00;100352.41;4885627;29;20028;-73
2023/12/24 10:35:06;;;;;;;20.85;8.27;;;;;;;10.15;100.00;100348.75;4894192;29;20096;-72
2023/12/24 10:37:31;;;;;;;25.17;8.27;;;;;;;10.17;100.00;100351.31;4899861;29;20032;-72
2023/12/24 10:40:10;;;;;;;24.13;8.75;;;;;;;10.19;100.00;100327.03;4898795;29;20020;-72
2023/12/24 10:42:37;;;;;;;22.05;8.70;;;;;;;10.19;100.00;100329.72;4899111;29;20025;-71
2023/12/24 10:45:04;;;;;;;20.23;7.53;;;;;;;10.22;100.00;100334.84;4880752;29;20520;-72
2023/12/24 10:47:29;;;;;;;21.40;7.95;;;;;;;10.25;100.00;100318.47;4893801;29;20045;-73
2023/12/24 10:49:55;;;;;;;19.50;7.13;;;;;;;10.25;100.00;100303.22;4898370;29;20030;-72
2023/12/24 10:52:20;;;;;;;19.33;6.53;;;;;;;10.28;100.00;100307.50;4878145;29;20040;-72
2023/12/24 10:54:46;;;;;;;17.73;5.82;;;;;;;10.30;100.00;100309.06;4895453;29;20440;-73
2023/12/24 10:57:23;;;;;;;15.85;5.07;;;;;;;10.33;100.00;100316.03;4895175;29;20024;-71
2023/12/24 11:00:10;;;;;;;17.10;5.15;;;;;;;10.34;100.00;100309.72;4898876;29;20531;-72
2023/12/24 11:02:42;;;;;;;13.50;4.25;;;;;;;10.38;100.00;100311.19;4894676;29;20064;-73
2023/12/24 11:05:07;;;;;;;11.30;4.07;;;;;;;10.37;100.00;100317.53;4899274;29;20028;-71
2023/12/24 11:07:45;;;;;;;12.32;3.92;;;;;;;10.38;100.00;100313.00;4882697;29;20484;-72
2023/12/24 11:10:42;;;;;;;10.77;3.15;;;;;;;10.39;100.00;100307.50;4892560;29;20396;-71
2023/12/24 11:13:09;;;;;;;8.93;2.95;;;;;;;10.39;100.00;100301.28;4897602;29;20555;-72
2023/12/24 11:15:42;;;;;;;7.97;2.72;;;;;;;10.39;100.00;100295.91;4879164;29;20052;-72